createdAt,value
2023-02-06T00:02:30.699Z,6.40
2023-02-06T00:07:36.584Z,6.70
2023-02-06T00:12:54.979Z,7.07
2023-02-06T00:18:17.732Z,7.27
2023-02-06T00:23:47.152Z,7.53
2023-02-06T00:28:52.763Z,6.97
2023-02-06T00:33:57.280Z,8.27
2023-02-06T00:39:03.840Z,8.27
2023-02-06T00:44:13.651Z,7.80
2023-02-06T00:49:31.788Z,8.93
2023-02-06T00:54:36.565Z,9.63
2023-02-06T00:59:44.538Z,10.37
2023-02-06T01:04:50.972Z,9.63
2023-02-06T01:09:59.842Z,9.40
2023-02-06T01:15:03.504Z,9.83
2023-02-06T01:20:11.928Z,9.73
2023-02-06T01:25:17.851Z,10.07
2023-02-06T01:30:22.241Z,8.87
2023-02-06T01:35:25.674Z,9.33
2023-02-06T01:40:44.242Z,10.07
2023-02-06T01:46:19.931Z,11.33
2023-02-06T01:51:35.583Z,12.20
2023-02-06T01:56:47.727Z,13.00
2023-02-06T02:02:00.580Z,15.03
2023-02-06T02:07:18.948Z,13.47
2023-02-06T02:12:23.963Z,14.43
2023-02-06T02:17:43.352Z,14.70
2023-02-06T02:23:01.605Z,15.53
2023-02-06T02:28:32.666Z,14.17
2023-02-06T02:34:10.188Z,17.40
2023-02-06T02:39:38.860Z,15.97
2023-02-06T02:44:49.135Z,16.10
2023-02-06T02:49:55.947Z,14.60
2023-02-06T02:55:22.497Z,15.27
2023-02-06T03:01:03.718Z,15.00
2023-02-06T03:06:42.486Z,14.13
2023-02-06T03:11:56.847Z,13.90
2023-02-06T03:17:31.845Z,14.33
2023-02-06T03:22:47.877Z,15.43
2023-02-06T03:27:55.032Z,14.70
2023-02-06T03:33:13.696Z,14.20
2023-02-06T03:38:24.849Z,15.97
2023-02-06T03:43:53.739Z,15.70
2023-02-06T03:49:02.817Z,17.00
2023-02-06T03:54:09.959Z,17.23
2023-02-06T03:59:16.091Z,14.90
2023-02-06T04:04:29.222Z,16.33
2023-02-06T04:09:54.351Z,15.30
2023-02-06T04:14:59.212Z,16.23
2023-02-06T04:20:06.145Z,15.93
2023-02-06T04:25:15.651Z,17.00
2023-02-06T04:30:20.747Z,15.17
2023-02-06T04:35:24.213Z,17.13
2023-02-06T04:40:33.841Z,15.83
2023-02-06T04:45:48.443Z,16.30
2023-02-06T04:50:53.201Z,17.80
2023-02-06T04:56:03.473Z,14.93
2023-02-06T05:02:07.964Z,15.97
2023-02-06T05:07:12.960Z,15.80
2023-02-06T05:12:19.490Z,16.13
2023-02-06T05:17:22.880Z,18.83
2023-02-06T05:22:27.740Z,16.77
2023-02-06T05:27:31.078Z,22.90
2023-02-06T05:32:50.978Z,21.20
2023-02-06T05:38:31.312Z,17.40
2023-02-06T05:43:34.802Z,18.67
2023-02-06T05:48:47.028Z,20.13
2023-02-06T05:54:00.750Z,17.57
2023-02-06T05:59:12.084Z,17.47
2023-02-06T06:04:23.407Z,17.33
2023-02-06T06:09:28.391Z,16.80
2023-02-06T06:14:33.843Z,18.13
2023-02-06T06:20:17.005Z,19.77
2023-02-06T06:25:27.368Z,19.83
2023-02-06T06:30:52.693Z,19.60
2023-02-06T06:36:06.585Z,19.33
2023-02-06T06:41:14.375Z,18.33
2023-02-06T06:46:18.986Z,20.17
2023-02-06T06:51:22.317Z,18.43
2023-02-06T06:56:27.206Z,19.63
2023-02-06T07:01:30.456Z,19.33
2023-02-06T07:06:33.780Z,19.47
2023-02-06T07:11:38.474Z,15.27
2023-02-06T07:16:42.139Z,18.93
2023-02-06T07:21:46.498Z,16.43
2023-02-06T07:26:51.049Z,26.83
2023-02-06T07:31:54.327Z,20.00
2023-02-06T07:36:59.828Z,18.07
2023-02-06T07:42:04.604Z,18.30
2023-02-06T07:47:10.456Z,18.83
2023-02-06T07:52:14.437Z,17.77
2023-02-06T07:57:21.013Z,20.00
2023-02-06T08:02:24.256Z,16.67
2023-02-06T08:07:27.700Z,18.53
2023-02-06T08:12:32.631Z,18.93
2023-02-06T08:17:36.047Z,17.83
2023-02-06T08:22:40.411Z,17.00
2023-02-06T08:27:45.262Z,18.87
2023-02-06T08:32:48.601Z,17.77
2023-02-06T08:37:52.165Z,18.43
2023-02-06T08:42:56.802Z,17.80
2023-02-06T08:48:00.111Z,15.97
2023-02-06T08:53:03.428Z,17.03
2023-02-06T08:58:09.054Z,17.90
2023-02-06T09:03:12.386Z,14.60
2023-02-06T09:08:15.750Z,15.00
2023-02-06T09:13:20.362Z,15.90
2023-02-06T09:18:24.262Z,13.40
2023-02-06T09:23:27.513Z,12.20
2023-02-06T09:28:32.116Z,12.87
2023-02-06T09:33:35.592Z,12.47
2023-02-06T09:38:41.006Z,11.57
2023-02-06T09:43:51.239Z,12.00
2023-02-06T09:48:56.533Z,14.67
2023-02-06T09:54:10.010Z,14.73
2023-02-06T09:59:20.597Z,13.87
2023-02-06T10:04:39.195Z,14.77
2023-02-06T10:09:46.117Z,15.67
2023-02-06T10:14:55.101Z,15.53
2023-02-06T10:20:04.202Z,13.53
2023-02-06T10:25:22.322Z,12.57
2023-02-06T10:30:37.199Z,9.70
2023-02-06T10:35:53.377Z,7.93
2023-02-06T10:41:02.800Z,8.50
2023-02-06T10:46:23.106Z,7.97
2023-02-06T10:51:31.599Z,6.47
2023-02-06T10:56:40.319Z,5.90
2023-02-06T11:01:48.178Z,8.10
2023-02-06T11:06:56.358Z,8.00
2023-02-06T11:12:00.866Z,7.03
2023-02-06T11:17:05.514Z,6.23
2023-02-06T11:22:13.353Z,6.23
2023-02-06T11:27:21.094Z,6.83
2023-02-06T11:32:36.021Z,6.13
2023-02-06T11:37:41.178Z,5.77
2023-02-06T11:42:44.646Z,5.40
2023-02-06T11:47:49.574Z,6.37
2023-02-06T11:52:58.519Z,3.80
2023-02-06T11:58:21.800Z,5.33
2023-02-06T12:03:31.844Z,4.47
2023-02-06T12:08:46.712Z,4.50
2023-02-06T12:13:54.756Z,4.73
2023-02-06T12:19:01.000Z,7.13
2023-02-06T12:24:14.310Z,8.00
2023-02-06T12:29:22.831Z,9.50
2023-02-06T12:34:41.855Z,5.53
2023-02-06T12:39:46.051Z,4.47
2023-02-06T12:44:55.802Z,3.83
2023-02-06T12:50:07.724Z,4.77
2023-02-06T12:55:20.930Z,4.07
2023-02-06T13:00:40.866Z,3.90
2023-02-06T13:05:47.976Z,4.23
2023-02-06T13:11:01.607Z,4.40
2023-02-06T13:16:06.099Z,4.43
2023-02-06T13:21:19.150Z,5.30
2023-02-06T13:27:03.919Z,5.93
2023-02-06T13:32:53.425Z,4.70
2023-02-06T13:38:28.533Z,3.33
2023-02-06T13:43:31.894Z,3.90
2023-02-06T13:49:10.926Z,3.70
2023-02-06T13:54:40.779Z,3.77
2023-02-06T13:59:49.950Z,4.67
2023-02-06T14:04:54.464Z,3.73
2023-02-06T14:10:14.116Z,4.70
2023-02-06T14:15:27.984Z,4.73
2023-02-06T14:20:45.365Z,5.57
2023-02-06T14:26:02.120Z,4.57
2023-02-06T14:31:16.493Z,4.77
2023-02-06T14:36:31.464Z,6.00
2023-02-06T14:41:39.722Z,5.60
2023-02-06T14:46:43.274Z,4.83
2023-02-06T14:51:50.006Z,6.47
2023-02-06T14:56:59.132Z,6.10
2023-02-06T15:02:14.231Z,6.57
2023-02-06T15:07:24.465Z,5.30
2023-02-06T15:12:32.209Z,4.97
2023-02-06T15:17:35.539Z,4.27
2023-02-06T15:22:38.998Z,5.30
2023-02-06T15:27:43.638Z,4.97
2023-02-06T15:32:51.317Z,5.37
2023-02-06T15:37:55.305Z,4.53
2023-02-06T15:43:00.972Z,4.30
2023-02-06T15:48:12.668Z,4.57
2023-02-06T15:53:19.795Z,5.63
2023-02-06T15:58:29.098Z,4.50
2023-02-06T16:03:33.538Z,4.77
2023-02-06T16:08:38.182Z,4.43
2023-02-06T16:13:46.741Z,4.27
2023-02-06T16:18:53.517Z,5.07
2023-02-06T16:24:16.683Z,5.30
2023-02-06T16:29:27.926Z,4.57
2023-02-06T16:34:37.300Z,5.57
2023-02-06T16:39:42.415Z,5.90
2023-02-06T16:44:50.013Z,4.83
2023-02-06T16:49:53.790Z,4.93
2023-02-06T16:54:59.866Z,4.80
2023-02-06T17:00:07.537Z,5.40
2023-02-06T17:05:11.126Z,5.63
2023-02-06T17:10:18.319Z,8.23
2023-02-06T17:15:23.596Z,7.53
2023-02-06T17:20:33.111Z,7.97
2023-02-06T17:25:38.161Z,6.37
2023-02-06T17:30:43.947Z,6.03
2023-02-06T17:35:49.028Z,5.37
2023-02-06T17:40:52.479Z,5.33
2023-02-06T17:45:57.307Z,5.00
2023-02-06T17:51:00.839Z,5.63
2023-02-06T17:56:08.458Z,5.93
2023-02-06T18:01:16.810Z,4.77
2023-02-06T18:06:21.297Z,5.00
2023-02-06T18:11:25.034Z,6.83
2023-02-06T18:16:31.976Z,7.40
2023-02-06T18:21:35.301Z,10.57
2023-02-06T18:26:38.606Z,7.23
2023-02-06T18:31:45.346Z,6.00
2023-02-06T18:36:48.859Z,6.77
2023-02-06T18:47:44.321Z,6.33
2023-02-06T18:52:47.599Z,6.20
2023-02-06T18:57:53.914Z,7.87
2023-02-06T19:02:59.644Z,6.30
2023-02-06T19:08:03.941Z,6.10
2023-02-06T19:13:09.436Z,7.13
2023-02-06T19:18:14.545Z,6.97
2023-02-06T19:23:17.966Z,5.67
2023-02-06T19:28:22.425Z,5.43
2023-02-06T19:33:27.193Z,5.40
2023-02-06T19:38:32.397Z,5.57
2023-02-06T19:43:36.884Z,5.83
2023-02-06T19:48:44.097Z,6.23
2023-02-06T19:53:51.528Z,5.40
2023-02-06T19:58:56.114Z,4.50
2023-02-06T20:04:02.417Z,5.23
2023-02-06T20:09:07.886Z,5.03
2023-02-06T20:14:20.206Z,4.93
2023-02-06T20:19:31.183Z,5.00
2023-02-06T20:24:36.612Z,5.37
2023-02-06T20:29:46.418Z,8.60
2023-02-06T20:34:51.276Z,6.30
2023-02-06T20:39:54.751Z,4.80
2023-02-06T20:45:03.727Z,4.87
2023-02-06T20:50:10.436Z,8.00
2023-02-06T20:55:15.713Z,7.13
2023-02-06T21:00:19.421Z,6.10
2023-02-06T21:05:29.921Z,6.53
2023-02-06T21:10:36.628Z,5.70
2023-02-06T21:15:40.116Z,5.47
2023-02-06T21:20:45.977Z,6.20
2023-02-06T21:25:52.856Z,6.17
2023-02-06T21:31:01.337Z,6.17
2023-02-06T21:36:08.793Z,6.87
2023-02-06T21:41:15.926Z,6.47
2023-02-06T21:46:19.432Z,6.10
2023-02-06T21:51:24.493Z,6.10
2023-02-06T21:56:29.625Z,7.13
2023-02-06T22:01:42.956Z,8.00
2023-02-06T22:06:49.795Z,7.80
2023-02-06T22:11:54.200Z,8.13
2023-02-06T22:16:57.607Z,7.30
2023-02-06T22:22:09.274Z,7.33
2023-02-06T22:27:12.680Z,7.53
2023-02-06T22:32:17.012Z,8.23
2023-02-06T22:37:25.341Z,7.57
2023-02-06T22:42:29.055Z,8.13
2023-02-06T22:47:34.576Z,8.67
2023-02-06T22:52:58.242Z,8.23
2023-02-06T22:58:04.576Z,8.60
2023-02-06T23:03:15.909Z,8.47
2023-02-06T23:08:25.739Z,8.37
2023-02-06T23:13:34.717Z,8.87
2023-02-06T23:18:41.731Z,8.70
2023-02-06T23:23:46.674Z,8.77
2023-02-06T23:28:50.102Z,7.30
2023-02-06T23:34:05.581Z,7.10
2023-02-06T23:39:39.455Z,5.80
2023-02-06T23:44:42.911Z,4.80
2023-02-06T23:49:49.150Z,5.37
2023-02-06T23:54:55.858Z,5.33
2023-02-06T23:59:59.297Z,5.33
